sensor_id;sensor_type;location;lat;lon;timestamp;temperature;humidity
21176;DHT22;10746;50.178;8.186;2023-05-14T00:01:14;8.00;99.90
21176;DHT22;10746;50.178;8.186;2023-05-14T00:03:42;8.00;99.90
21176;DHT22;10746;50.178;8.186;2023-05-14T00:06:09;8.10;99.90
21176;DHT22;10746;50.178;8.186;2023-05-14T00:08:36;8.10;99.90
21176;DHT22;10746;50.178;8.186;2023-05-14T00:11:03;8.10;99.90
21176;DHT22;10746;50.178;8.186;2023-05-14T00:13:29;8.20;99.90
21176;DHT22;10746;50.178;8.186;2023-05-14T00:15:56;8.30;99.90
21176;DHT22;10746;50.178;8.186;2023-05-14T00:18:23;8.20;99.90
21176;DHT22;10746;50.178;8.186;2023-05-14T00:20:51;8.20;99.90
21176;DHT22;10746;50.178;8.186;2023-05-14T00:23:19;8.10;99.90
21176;DHT22;10746;50.178;8.186;2023-05-14T00:25:46;8.10;99.90
21176;DHT22;10746;50.178;8.186;2023-05-14T00:28:12;8.00;99.90
21176;DHT22;10746;50.178;8.186;2023-05-14T00:30:39;8.00;99.90
21176;DHT22;10746;50.178;8.186;2023-05-14T00:33:06;8.00;99.90
21176;DHT22;10746;50.178;8.186;2023-05-14T00:35:33;8.00;99.90
21176;DHT22;10746;50.178;8.186;2023-05-14T00:38:02;8.10;99.90
21176;DHT22;10746;50.178;8.186;2023-05-14T00:40:29;8.10;99.90
21176;DHT22;10746;50.178;8.186;2023-05-14T00:42:56;8.10;99.90
21176;DHT22;10746;50.178;8.186;2023-05-14T00:45:22;8.10;99.90
21176;DHT22;10746;50.178;8.186;2023-05-14T00:47:50;8.10;99.90
21176;DHT22;10746;50.178;8.186;2023-05-14T00:50:17;8.00;99.90
21176;DHT22;10746;50.178;8.186;2023-05-14T00:52:44;8.00;99.90
21176;DHT22;10746;50.178;8.186;2023-05-14T00:55:13;8.00;99.90
21176;DHT22;10746;50.178;8.186;2023-05-14T00:57:41;8.10;99.90
21176;DHT22;10746;50.178;8.186;2023-05-14T01:00:08;7.90;99.90
21176;DHT22;10746;50.178;8.186;2023-05-14T01:02:35;7.90;99.90
21176;DHT22;10746;50.178;8.186;2023-05-14T01:05:02;7.70;99.90
21176;DHT22;10746;50.178;8.186;2023-05-14T01:07:38;7.80;99.90
21176;DHT22;10746;50.178;8.186;2023-05-14T01:10:10;7.70;99.90
21176;DHT22;10746;50.178;8.186;2023-05-14T01:12:45;7.70;99.90
21176;DHT22;10746;50.178;8.186;2023-05-14T01:15:16;7.70;99.90
21176;DHT22;10746;50.178;8.186;2023-05-14T01:17:47;7.70;99.90
21176;DHT22;10746;50.178;8.186;2023-05-14T01:20:15;7.70;99.90
21176;DHT22;10746;50.178;8.186;2023-05-14T01:22:43;7.70;99.90
21176;DHT22;10746;50.178;8.186;2023-05-14T01:25:10;7.70;99.90
21176;DHT22;10746;50.178;8.186;2023-05-14T01:27:41;7.70;99.90
21176;DHT22;10746;50.178;8.186;2023-05-14T01:30:14;7.70;99.90
21176;DHT22;10746;50.178;8.186;2023-05-14T01:36:05;7.60;99.90
21176;DHT22;10746;50.178;8.186;2023-05-14T01:38:34;7.50;99.90
21176;DHT22;10746;50.178;8.186;2023-05-14T01:41:02;7.50;99.90
21176;DHT22;10746;50.178;8.186;2023-05-14T01:43:30;7.50;99.90
21176;DHT22;10746;50.178;8.186;2023-05-14T01:45:57;7.50;99.90
21176;DHT22;10746;50.178;8.186;2023-05-14T01:48:24;7.40;99.90
21176;DHT22;10746;50.178;8.186;2023-05-14T01:50:50;7.40;99.90
21176;DHT22;10746;50.178;8.186;2023-05-14T01:53:17;7.40;99.90
21176;DHT22;10746;50.178;8.186;2023-05-14T01:55:45;7.40;99.90
21176;DHT22;10746;50.178;8.186;2023-05-14T01:58:12;7.40;99.90
21176;DHT22;10746;50.178;8.186;2023-05-14T02:00:38;7.30;99.90
21176;DHT22;10746;50.178;8.186;2023-05-14T02:03:05;7.30;99.90
21176;DHT22;10746;50.178;8.186;2023-05-14T02:05:32;7.30;99.90
21176;DHT22;10746;50.178;8.186;2023-05-14T02:07:58;7.30;99.90
21176;DHT22;10746;50.178;8.186;2023-05-14T02:10:25;7.10;99.90
21176;DHT22;10746;50.178;8.186;2023-05-14T02:12:53;6.90;99.90
21176;DHT22;10746;50.178;8.186;2023-05-14T02:15:20;6.90;99.90
21176;DHT22;10746;50.178;8.186;2023-05-14T02:17:46;6.80;99.90
21176;DHT22;10746;50.178;8.186;2023-05-14T02:20:13;6.70;99.90
21176;DHT22;10746;50.178;8.186;2023-05-14T02:22:40;6.70;99.90
21176;DHT22;10746;50.178;8.186;2023-05-14T02:25:10;6.50;99.90
21176;DHT22;10746;50.178;8.186;2023-05-14T02:27:36;6.60;99.90
21176;DHT22;10746;50.178;8.186;2023-05-14T02:30:06;6.60;99.90
21176;DHT22;10746;50.178;8.186;2023-05-14T02:32:32;6.50;99.90
21176;DHT22;10746;50.178;8.186;2023-05-14T02:34:59;6.60;99.90
21176;DHT22;10746;50.178;8.186;2023-05-14T02:37:26;6.70;99.90
21176;DHT22;10746;50.178;8.186;2023-05-14T02:39:53;6.70;99.90
21176;DHT22;10746;50.178;8.186;2023-05-14T02:42:20;6.70;99.90
21176;DHT22;10746;50.178;8.186;2023-05-14T02:44:46;6.70;99.90
21176;DHT22;10746;50.178;8.186;2023-05-14T02:47:14;6.70;99.90
21176;DHT22;10746;50.178;8.186;2023-05-14T02:49:41;6.70;99.90
21176;DHT22;10746;50.178;8.186;2023-05-14T02:52:08;6.70;99.90
21176;DHT22;10746;50.178;8.186;2023-05-14T02:54:34;6.70;99.90
21176;DHT22;10746;50.178;8.186;2023-05-14T02:57:01;6.70;99.90
21176;DHT22;10746;50.178;8.186;2023-05-14T02:59:28;6.70;99.90
21176;DHT22;10746;50.178;8.186;2023-05-14T03:01:55;6.70;99.90
21176;DHT22;10746;50.178;8.186;2023-05-14T03:04:23;6.70;99.90
21176;DHT22;10746;50.178;8.186;2023-05-14T03:06:50;6.70;99.90
21176;DHT22;10746;50.178;8.186;2023-05-14T03:09:17;6.60;99.90
21176;DHT22;10746;50.178;8.186;2023-05-14T03:11:44;6.50;99.90
21176;DHT22;10746;50.178;8.186;2023-05-14T03:14:11;6.50;99.90
21176;DHT22;10746;50.178;8.186;2023-05-14T03:16:37;6.50;99.90
21176;DHT22;10746;50.178;8.186;2023-05-14T03:19:06;6.40;99.90
21176;DHT22;10746;50.178;8.186;2023-05-14T03:21:35;6.30;99.90
21176;DHT22;10746;50.178;8.186;2023-05-14T03:24:02;6.30;99.90
21176;DHT22;10746;50.178;8.186;2023-05-14T03:26:29;6.30;99.90
21176;DHT22;10746;50.178;8.186;2023-05-14T03:28:55;6.30;99.90
21176;DHT22;10746;50.178;8.186;2023-05-14T03:31:22;6.30;99.90
21176;DHT22;10746;50.178;8.186;2023-05-14T03:33:49;6.40;99.90
21176;DHT22;10746;50.178;8.186;2023-05-14T03:36:15;6.40;99.90
21176;DHT22;10746;50.178;8.186;2023-05-14T03:38:43;6.40;99.90
21176;DHT22;10746;50.178;8.186;2023-05-14T03:41:10;6.40;99.90
21176;DHT22;10746;50.178;8.186;2023-05-14T03:43:37;6.40;99.90
21176;DHT22;10746;50.178;8.186;2023-05-14T03:46:03;6.30;99.90
21176;DHT22;10746;50.178;8.186;2023-05-14T03:48:30;6.30;99.90
21176;DHT22;10746;50.178;8.186;2023-05-14T03:50:57;6.10;99.90
21176;DHT22;10746;50.178;8.186;2023-05-14T03:53:24;6.00;99.90
21176;DHT22;10746;50.178;8.186;2023-05-14T03:55:52;6.00;99.90
21176;DHT22;10746;50.178;8.186;2023-05-14T03:58:18;6.00;99.90
21176;DHT22;10746;50.178;8.186;2023-05-14T04:00:45;6.00;99.90
21176;DHT22;10746;50.178;8.186;2023-05-14T04:03:12;6.00;99.90
21176;DHT22;10746;50.178;8.186;2023-05-14T04:05:38;6.10;99.90
21176;DHT22;10746;50.178;8.186;2023-05-14T04:08:05;6.20;99.90
21176;DHT22;10746;50.178;8.186;2023-05-14T04:10:32;6.40;99.90
21176;DHT22;10746;50.178;8.186;2023-05-14T04:13:00;6.50;99.90
21176;DHT22;10746;50.178;8.186;2023-05-14T04:15:26;6.60;99.90
21176;DHT22;10746;50.178;8.186;2023-05-14T04:17:53;6.70;99.90
21176;DHT22;10746;50.178;8.186;2023-05-14T04:20:20;6.80;99.90
21176;DHT22;10746;50.178;8.186;2023-05-14T04:22:46;6.90;99.90
21176;DHT22;10746;50.178;8.186;2023-05-14T04:25:13;6.90;99.90
21176;DHT22;10746;50.178;8.186;2023-05-14T04:27:40;6.90;99.90
21176;DHT22;10746;50.178;8.186;2023-05-14T04:30:09;7.00;99.90
21176;DHT22;10746;50.178;8.186;2023-05-14T04:32:36;7.10;99.90
21176;DHT22;10746;50.178;8.186;2023-05-14T04:35:04;7.20;99.90
21176;DHT22;10746;50.178;8.186;2023-05-14T04:37:31;7.30;99.90
21176;DHT22;10746;50.178;8.186;2023-05-14T04:39:57;7.50;99.90
21176;DHT22;10746;50.178;8.186;2023-05-14T04:42:24;7.60;99.90
21176;DHT22;10746;50.178;8.186;2023-05-14T04:44:51;7.70;99.90
21176;DHT22;10746;50.178;8.186;2023-05-14T04:47:19;7.90;99.90
21176;DHT22;10746;50.178;8.186;2023-05-14T04:49:46;8.00;99.90
21176;DHT22;10746;50.178;8.186;2023-05-14T04:52:13;8.20;99.90
21176;DHT22;10746;50.178;8.186;2023-05-14T04:54:40;8.40;99.90
21176;DHT22;10746;50.178;8.186;2023-05-14T04:57:06;8.30;99.90
21176;DHT22;10746;50.178;8.186;2023-05-14T04:59:33;8.30;99.90
21176;DHT22;10746;50.178;8.186;2023-05-14T05:02:00;8.50;99.90
21176;DHT22;10746;50.178;8.186;2023-05-14T05:04:28;8.70;99.90
21176;DHT22;10746;50.178;8.186;2023-05-14T05:06:55;8.80;99.90
21176;DHT22;10746;50.178;8.186;2023-05-14T05:09:21;8.90;99.90
21176;DHT22;10746;50.178;8.186;2023-05-14T05:11:48;8.90;99.90
21176;DHT22;10746;50.178;8.186;2023-05-14T05:14:15;8.80;99.90
21176;DHT22;10746;50.178;8.186;2023-05-14T05:16:41;8.80;99.90
21176;DHT22;10746;50.178;8.186;2023-05-14T05:19:09;8.80;99.90
21176;DHT22;10746;50.178;8.186;2023-05-14T05:21:37;8.90;99.90
21176;DHT22;10746;50.178;8.186;2023-05-14T05:24:05;9.10;99.90
21176;DHT22;10746;50.178;8.186;2023-05-14T05:26:32;9.20;99.90
21176;DHT22;10746;50.178;8.186;2023-05-14T05:29:01;9.40;99.90
21176;DHT22;10746;50.178;8.186;2023-05-14T05:31:27;9.50;99.90
21176;DHT22;10746;50.178;8.186;2023-05-14T05:33:54;9.60;99.90
21176;DHT22;10746;50.178;8.186;2023-05-14T05:36:21;9.50;99.90
21176;DHT22;10746;50.178;8.186;2023-05-14T05:38:49;9.50;99.90
21176;DHT22;10746;50.178;8.186;2023-05-14T05:41:16;9.40;99.90
21176;DHT22;10746;50.178;8.186;2023-05-14T05:43:42;9.60;99.90
21176;DHT22;10746;50.178;8.186;2023-05-14T05:46:09;9.90;99.90
21176;DHT22;10746;50.178;8.186;2023-05-14T05:48:36;10.20;99.90
21176;DHT22;10746;50.178;8.186;2023-05-14T05:51:03;10.50;99.90
21176;DHT22;10746;50.178;8.186;2023-05-14T05:53:29;10.60;99.90
21176;DHT22;10746;50.178;8.186;2023-05-14T05:55:57;10.20;99.90
21176;DHT22;10746;50.178;8.186;2023-05-14T05:58:24;10.40;99.90
21176;DHT22;10746;50.178;8.186;2023-05-14T06:00:51;10.80;99.90
21176;DHT22;10746;50.178;8.186;2023-05-14T06:03:17;11.20;99.90
21176;DHT22;10746;50.178;8.186;2023-05-14T06:05:44;11.60;99.90
21176;DHT22;10746;50.178;8.186;2023-05-14T06:08:11;11.80;99.90
21176;DHT22;10746;50.178;8.186;2023-05-14T06:10:38;12.10;99.90
21176;DHT22;10746;50.178;8.186;2023-05-14T06:13:06;12.30;99.90
21176;DHT22;10746;50.178;8.186;2023-05-14T06:15:32;12.00;99.90
21176;DHT22;10746;50.178;8.186;2023-05-14T06:17:59;11.60;99.90
21176;DHT22;10746;50.178;8.186;2023-05-14T06:20:26;11.30;99.90
21176;DHT22;10746;50.178;8.186;2023-05-14T06:22:52;11.30;99.90
21176;DHT22;10746;50.178;8.186;2023-05-14T06:25:19;11.30;99.90
21176;DHT22;10746;50.178;8.186;2023-05-14T06:27:46;11.50;99.90
21176;DHT22;10746;50.178;8.186;2023-05-14T06:30:14;11.60;99.90
21176;DHT22;10746;50.178;8.186;2023-05-14T06:32:41;11.80;99.90
21176;DHT22;10746;50.178;8.186;2023-05-14T06:35:08;11.70;99.90
21176;DHT22;10746;50.178;8.186;2023-05-14T06:37:35;11.70;99.90
21176;DHT22;10746;50.178;8.186;2023-05-14T06:40:02;11.70;99.90
21176;DHT22;10746;50.178;8.186;2023-05-14T06:42:29;11.90;99.90
21176;DHT22;10746;50.178;8.186;2023-05-14T06:44:55;11.90;99.90
21176;DHT22;10746;50.178;8.186;2023-05-14T06:47:24;12.10;99.90
21176;DHT22;10746;50.178;8.186;2023-05-14T06:49:50;12.20;99.90
21176;DHT22;10746;50.178;8.186;2023-05-14T06:52:17;12.30;99.90
21176;DHT22;10746;50.178;8.186;2023-05-14T06:54:44;12.40;99.90
21176;DHT22;10746;50.178;8.186;2023-05-14T06:57:11;12.50;99.90
21176;DHT22;10746;50.178;8.186;2023-05-14T06:59:37;12.60;99.90
21176;DHT22;10746;50.178;8.186;2023-05-14T07:02:04;12.60;99.90
21176;DHT22;10746;50.178;8.186;2023-05-14T07:04:32;12.70;99.90
21176;DHT22;10746;50.178;8.186;2023-05-14T07:06:59;12.80;99.90
21176;DHT22;10746;50.178;8.186;2023-05-14T07:09:25;12.70;99.90
21176;DHT22;10746;50.178;8.186;2023-05-14T07:11:52;12.80;99.90
21176;DHT22;10746;50.178;8.186;2023-05-14T07:14:19;12.90;99.90
21176;DHT22;10746;50.178;8.186;2023-05-14T07:16:45;13.00;99.90
21176;DHT22;10746;50.178;8.186;2023-05-14T07:19:12;13.00;99.90
21176;DHT22;10746;50.178;8.186;2023-05-14T07:21:40;13.20;99.90
21176;DHT22;10746;50.178;8.186;2023-05-14T07:24:07;13.40;99.90
21176;DHT22;10746;50.178;8.186;2023-05-14T07:26:34;13.70;99.90
21176;DHT22;10746;50.178;8.186;2023-05-14T07:29:00;13.80;99.90
21176;DHT22;10746;50.178;8.186;2023-05-14T07:31:27;13.90;99.90
21176;DHT22;10746;50.178;8.186;2023-05-14T07:33:54;13.90;99.90
21176;DHT22;10746;50.178;8.186;2023-05-14T07:36:20;13.80;99.90
21176;DHT22;10746;50.178;8.186;2023-05-14T07:38:48;13.60;99.90
21176;DHT22;10746;50.178;8.186;2023-05-14T07:41:15;13.60;99.90
21176;DHT22;10746;50.178;8.186;2023-05-14T07:43:42;13.30;99.90
21176;DHT22;10746;50.178;8.186;2023-05-14T07:46:09;13.20;99.90
21176;DHT22;10746;50.178;8.186;2023-05-14T07:48:35;13.30;99.90
21176;DHT22;10746;50.178;8.186;2023-05-14T07:51:02;13.50;99.90
21176;DHT22;10746;50.178;8.186;2023-05-14T07:53:29;13.60;99.90
21176;DHT22;10746;50.178;8.186;2023-05-14T07:55:57;13.70;99.90
21176;DHT22;10746;50.178;8.186;2023-05-14T07:58:24;14.00;99.90
21176;DHT22;10746;50.178;8.186;2023-05-14T08:00:52;14.50;99.90
21176;DHT22;10746;50.178;8.186;2023-05-14T08:03:18;14.70;99.90
21176;DHT22;10746;50.178;8.186;2023-05-14T08:05:45;14.70;99.90
21176;DHT22;10746;50.178;8.186;2023-05-14T08:08:12;14.80;99.90
21176;DHT22;10746;50.178;8.186;2023-05-14T08:10:38;14.90;99.90
21176;DHT22;10746;50.178;8.186;2023-05-14T08:13:06;14.90;99.90
21176;DHT22;10746;50.178;8.186;2023-05-14T08:15:33;15.00;99.90
21176;DHT22;10746;50.178;8.186;2023-05-14T08:18:00;14.90;99.90
21176;DHT22;10746;50.178;8.186;2023-05-14T08:20:28;15.20;99.90
21176;DHT22;10746;50.178;8.186;2023-05-14T08:22:55;15.20;99.90
21176;DHT22;10746;50.178;8.186;2023-05-14T08:25:22;15.40;99.90
21176;DHT22;10746;50.178;8.186;2023-05-14T08:27:49;15.30;99.90
21176;DHT22;10746;50.178;8.186;2023-05-14T08:30:17;15.00;99.90
21176;DHT22;10746;50.178;8.186;2023-05-14T08:32:44;15.00;99.90
21176;DHT22;10746;50.178;8.186;2023-05-14T08:35:10;15.40;99.90
21176;DHT22;10746;50.178;8.186;2023-05-14T08:37:37;15.30;99.90
21176;DHT22;10746;50.178;8.186;2023-05-14T08:40:05;15.40;99.90
21176;DHT22;10746;50.178;8.186;2023-05-14T08:42:33;15.10;99.90
21176;DHT22;10746;50.178;8.186;2023-05-14T08:45:01;14.50;99.90
21176;DHT22;10746;50.178;8.186;2023-05-14T08:47:30;14.30;99.90
21176;DHT22;10746;50.178;8.186;2023-05-14T08:50:00;14.60;99.90
21176;DHT22;10746;50.178;8.186;2023-05-14T08:52:29;15.30;99.90
21176;DHT22;10746;50.178;8.186;2023-05-14T08:54:56;15.50;99.90
21176;DHT22;10746;50.178;8.186;2023-05-14T08:57:24;15.60;99.90
21176;DHT22;10746;50.178;8.186;2023-05-14T08:59:52;15.80;99.90
21176;DHT22;10746;50.178;8.186;2023-05-14T09:02:22;16.10;99.90
21176;DHT22;10746;50.178;8.186;2023-05-14T09:04:54;16.50;99.90
21176;DHT22;10746;50.178;8.186;2023-05-14T09:07:21;16.70;99.90
21176;DHT22;10746;50.178;8.186;2023-05-14T09:09:49;16.50;99.90
21176;DHT22;10746;50.178;8.186;2023-05-14T09:12:16;16.40;99.90
21176;DHT22;10746;50.178;8.186;2023-05-14T09:14:43;16.90;99.90
21176;DHT22;10746;50.178;8.186;2023-05-14T09:17:10;16.60;99.90
21176;DHT22;10746;50.178;8.186;2023-05-14T09:19:38;16.70;99.90
21176;DHT22;10746;50.178;8.186;2023-05-14T09:22:08;17.00;99.90
21176;DHT22;10746;50.178;8.186;2023-05-14T09:24:36;17.00;99.90
21176;DHT22;10746;50.178;8.186;2023-05-14T09:27:04;17.30;99.90
21176;DHT22;10746;50.178;8.186;2023-05-14T09:29:32;17.50;99.90
21176;DHT22;10746;50.178;8.186;2023-05-14T09:31:59;17.50;99.90
21176;DHT22;10746;50.178;8.186;2023-05-14T09:34:30;17.30;99.90
21176;DHT22;10746;50.178;8.186;2023-05-14T09:36:59;17.20;99.90
21176;DHT22;10746;50.178;8.186;2023-05-14T09:39:28;17.30;99.90
21176;DHT22;10746;50.178;8.186;2023-05-14T09:41:56;17.10;99.90
21176;DHT22;10746;50.178;8.186;2023-05-14T09:44:23;17.00;99.90
21176;DHT22;10746;50.178;8.186;2023-05-14T09:46:50;17.10;99.90
21176;DHT22;10746;50.178;8.186;2023-05-14T09:49:18;17.00;99.90
21176;DHT22;10746;50.178;8.186;2023-05-14T09:51:45;17.10;99.90
21176;DHT22;10746;50.178;8.186;2023-05-14T09:54:11;17.40;99.90
21176;DHT22;10746;50.178;8.186;2023-05-14T09:56:40;17.30;99.90
21176;DHT22;10746;50.178;8.186;2023-05-14T09:59:07;17.20;99.90
21176;DHT22;10746;50.178;8.186;2023-05-14T10:01:34;17.00;99.90
21176;DHT22;10746;50.178;8.186;2023-05-14T10:04:02;16.60;99.90
21176;DHT22;10746;50.178;8.186;2023-05-14T10:06:32;16.40;99.90
21176;DHT22;10746;50.178;8.186;2023-05-14T10:09:03;16.40;99.90
21176;DHT22;10746;50.178;8.186;2023-05-14T10:11:31;16.60;99.90
21176;DHT22;10746;50.178;8.186;2023-05-14T10:14:02;16.70;99.90
21176;DHT22;10746;50.178;8.186;2023-05-14T10:16:33;16.30;99.90
21176;DHT22;10746;50.178;8.186;2023-05-14T10:19:03;16.30;99.90
21176;DHT22;10746;50.178;8.186;2023-05-14T10:21:34;16.50;99.90
21176;DHT22;10746;50.178;8.186;2023-05-14T10:24:01;16.50;99.90
21176;DHT22;10746;50.178;8.186;2023-05-14T10:26:29;16.70;99.90
21176;DHT22;10746;50.178;8.186;2023-05-14T10:28:56;16.70;99.90
21176;DHT22;10746;50.178;8.186;2023-05-14T10:31:44;17.00;99.90
21176;DHT22;10746;50.178;8.186;2023-05-14T10:34:29;17.20;99.90
21176;DHT22;10746;50.178;8.186;2023-05-14T10:36:58;17.30;99.90
21176;DHT22;10746;50.178;8.186;2023-05-14T10:39:42;17.30;99.90
21176;DHT22;10746;50.178;8.186;2023-05-14T10:42:10;17.20;99.90
21176;DHT22;10746;50.178;8.186;2023-05-14T10:44:45;16.90;99.90
21176;DHT22;10746;50.178;8.186;2023-05-14T10:47:14;16.40;99.90
21176;DHT22;10746;50.178;8.186;2023-05-14T10:49:43;16.30;99.90
21176;DHT22;10746;50.178;8.186;2023-05-14T10:52:15;16.50;99.90
21176;DHT22;10746;50.178;8.186;2023-05-14T10:54:48;16.50;99.90
21176;DHT22;10746;50.178;8.186;2023-05-14T10:57:17;16.50;99.90
21176;DHT22;10746;50.178;8.186;2023-05-14T10:59:45;16.90;99.90
21176;DHT22;10746;50.178;8.186;2023-05-14T11:02:21;17.10;99.90
21176;DHT22;10746;50.178;8.186;2023-05-14T11:04:53;17.10;99.90
21176;DHT22;10746;50.178;8.186;2023-05-14T11:07:23;17.00;99.90
21176;DHT22;10746;50.178;8.186;2023-05-14T11:09:50;16.90;99.90
21176;DHT22;10746;50.178;8.186;2023-05-14T11:12:17;16.80;99.90
21176;DHT22;10746;50.178;8.186;2023-05-14T11:14:44;16.80;99.90
21176;DHT22;10746;50.178;8.186;2023-05-14T11:17:12;16.90;99.90
21176;DHT22;10746;50.178;8.186;2023-05-14T11:19:42;17.10;99.90
21176;DHT22;10746;50.178;8.186;2023-05-14T11:22:09;16.60;99.90
21176;DHT22;10746;50.178;8.186;2023-05-14T11:24:38;16.10;99.90
21176;DHT22;10746;50.178;8.186;2023-05-14T11:27:06;15.70;99.90
21176;DHT22;10746;50.178;8.186;2023-05-14T11:29:34;15.60;99.90
21176;DHT22;10746;50.178;8.186;2023-05-14T11:32:01;16.00;99.90
21176;DHT22;10746;50.178;8.186;2023-05-14T11:34:27;16.30;99.90
21176;DHT22;10746;50.178;8.186;2023-05-14T11:36:55;16.50;99.90
21176;DHT22;10746;50.178;8.186;2023-05-14T11:39:22;16.50;99.90
21176;DHT22;10746;50.178;8.186;2023-05-14T11:41:49;16.80;99.90
21176;DHT22;10746;50.178;8.186;2023-05-14T11:44:16;16.60;99.90
21176;DHT22;10746;50.178;8.186;2023-05-14T11:46:53;16.20;99.90
21176;DHT22;10746;50.178;8.186;2023-05-14T11:49:20;15.90;99.90
21176;DHT22;10746;50.178;8.186;2023-05-14T11:51:47;15.80;99.90
21176;DHT22;10746;50.178;8.186;2023-05-14T11:54:15;15.70;99.90
21176;DHT22;10746;50.178;8.186;2023-05-14T11:56:42;15.70;99.90
21176;DHT22;10746;50.178;8.186;2023-05-14T11:59:10;15.80;99.90
21176;DHT22;10746;50.178;8.186;2023-05-14T12:01:37;16.10;99.90
21176;DHT22;10746;50.178;8.186;2023-05-14T12:04:05;16.50;99.90
21176;DHT22;10746;50.178;8.186;2023-05-14T12:06:32;16.50;99.90
21176;DHT22;10746;50.178;8.186;2023-05-14T12:08:59;17.00;99.90
21176;DHT22;10746;50.178;8.186;2023-05-14T12:11:31;17.70;99.90
21176;DHT22;10746;50.178;8.186;2023-05-14T12:13:58;17.90;99.90
21176;DHT22;10746;50.178;8.186;2023-05-14T12:16:29;18.20;99.90
21176;DHT22;10746;50.178;8.186;2023-05-14T12:18:58;18.50;99.90
21176;DHT22;10746;50.178;8.186;2023-05-14T12:21:27;18.50;99.90
21176;DHT22;10746;50.178;8.186;2023-05-14T12:23:57;18.50;99.90
21176;DHT22;10746;50.178;8.186;2023-05-14T12:26:24;18.50;99.90
21176;DHT22;10746;50.178;8.186;2023-05-14T12:28:58;18.50;99.90
21176;DHT22;10746;50.178;8.186;2023-05-14T12:31:29;18.90;99.90
21176;DHT22;10746;50.178;8.186;2023-05-14T12:33:55;19.10;99.90
21176;DHT22;10746;50.178;8.186;2023-05-14T12:36:22;19.90;99.90
21176;DHT22;10746;50.178;8.186;2023-05-14T12:38:50;20.10;99.90
21176;DHT22;10746;50.178;8.186;2023-05-14T12:41:16;20.30;99.90
21176;DHT22;10746;50.178;8.186;2023-05-14T12:43:43;20.60;99.90
21176;DHT22;10746;50.178;8.186;2023-05-14T12:46:11;21.00;99.90
21176;DHT22;10746;50.178;8.186;2023-05-14T12:48:38;21.50;99.90
21176;DHT22;10746;50.178;8.186;2023-05-14T12:51:05;21.10;99.90
21176;DHT22;10746;50.178;8.186;2023-05-14T12:53:33;20.60;99.90
21176;DHT22;10746;50.178;8.186;2023-05-14T12:56:00;19.60;99.90
21176;DHT22;10746;50.178;8.186;2023-05-14T12:58:27;18.40;99.90
21176;DHT22;10746;50.178;8.186;2023-05-14T13:00:53;18.20;99.90
21176;DHT22;10746;50.178;8.186;2023-05-14T13:03:22;18.90;99.90
21176;DHT22;10746;50.178;8.186;2023-05-14T13:05:50;19.60;99.90
21176;DHT22;10746;50.178;8.186;2023-05-14T13:08:17;20.50;99.90
21176;DHT22;10746;50.178;8.186;2023-05-14T13:10:45;21.30;99.90
21176;DHT22;10746;50.178;8.186;2023-05-14T13:13:14;21.90;99.90
21176;DHT22;10746;50.178;8.186;2023-05-14T13:15:41;19.90;99.90
21176;DHT22;10746;50.178;8.186;2023-05-14T13:18:07;18.20;99.90
21176;DHT22;10746;50.178;8.186;2023-05-14T13:20:35;17.40;99.90
21176;DHT22;10746;50.178;8.186;2023-05-14T13:23:02;16.70;99.90
21176;DHT22;10746;50.178;8.186;2023-05-14T13:25:29;16.30;99.90
21176;DHT22;10746;50.178;8.186;2023-05-14T13:27:56;16.30;99.90
21176;DHT22;10746;50.178;8.186;2023-05-14T13:30:22;17.00;99.90
21176;DHT22;10746;50.178;8.186;2023-05-14T13:32:49;17.50;99.90
21176;DHT22;10746;50.178;8.186;2023-05-14T13:35:16;18.40;99.90
21176;DHT22;10746;50.178;8.186;2023-05-14T13:37:45;19.80;99.90
21176;DHT22;10746;50.178;8.186;2023-05-14T13:40:12;20.50;99.90
21176;DHT22;10746;50.178;8.186;2023-05-14T13:42:39;21.40;99.90
21176;DHT22;10746;50.178;8.186;2023-05-14T13:45:06;20.60;99.90
21176;DHT22;10746;50.178;8.186;2023-05-14T13:47:33;19.60;99.90
21176;DHT22;10746;50.178;8.186;2023-05-14T13:50:00;19.80;99.90
21176;DHT22;10746;50.178;8.186;2023-05-14T13:52:27;20.20;99.90
21176;DHT22;10746;50.178;8.186;2023-05-14T13:54:55;20.40;99.90
21176;DHT22;10746;50.178;8.186;2023-05-14T13:57:21;19.70;99.90
21176;DHT22;10746;50.178;8.186;2023-05-14T13:59:48;19.30;99.90
21176;DHT22;10746;50.178;8.186;2023-05-14T14:02:15;19.30;99.90
21176;DHT22;10746;50.178;8.186;2023-05-14T14:04:42;19.80;99.90
21176;DHT22;10746;50.178;8.186;2023-05-14T14:07:08;19.90;99.90
21176;DHT22;10746;50.178;8.186;2023-05-14T14:09:35;20.00;99.90
21176;DHT22;10746;50.178;8.186;2023-05-14T14:12:04;21.10;99.90
21176;DHT22;10746;50.178;8.186;2023-05-14T14:14:31;22.20;99.90
21176;DHT22;10746;50.178;8.186;2023-05-14T14:16:58;22.90;99.90
21176;DHT22;10746;50.178;8.186;2023-05-14T14:19:24;22.80;99.90
21176;DHT22;10746;50.178;8.186;2023-05-14T14:21:51;21.70;99.90
21176;DHT22;10746;50.178;8.186;2023-05-14T14:24:18;21.10;99.90
21176;DHT22;10746;50.178;8.186;2023-05-14T14:26:44;20.80;99.90
21176;DHT22;10746;50.178;8.186;2023-05-14T14:29:12;20.50;99.90
21176;DHT22;10746;50.178;8.186;2023-05-14T14:31:40;20.40;99.90
21176;DHT22;10746;50.178;8.186;2023-05-14T14:34:07;20.30;99.90
21176;DHT22;10746;50.178;8.186;2023-05-14T14:36:34;19.90;99.90
21176;DHT22;10746;50.178;8.186;2023-05-14T14:39:01;19.60;99.90
21176;DHT22;10746;50.178;8.186;2023-05-14T14:41:28;19.10;99.90
21176;DHT22;10746;50.178;8.186;2023-05-14T14:43:55;18.60;99.90
21176;DHT22;10746;50.178;8.186;2023-05-14T14:46:23;18.50;99.90
21176;DHT22;10746;50.178;8.186;2023-05-14T14:48:49;18.20;99.90
21176;DHT22;10746;50.178;8.186;2023-05-14T14:51:16;18.40;99.90
21176;DHT22;10746;50.178;8.186;2023-05-14T14:53:43;18.50;99.90
21176;DHT22;10746;50.178;8.186;2023-05-14T14:56:09;18.30;99.90
21176;DHT22;10746;50.178;8.186;2023-05-14T14:58:36;18.00;99.90
21176;DHT22;10746;50.178;8.186;2023-05-14T15:01:03;17.50;99.90
21176;DHT22;10746;50.178;8.186;2023-05-14T15:03:31;17.20;99.90
21176;DHT22;10746;50.178;8.186;2023-05-14T15:05:58;17.00;99.90
21176;DHT22;10746;50.178;8.186;2023-05-14T15:08:26;16.80;99.90
21176;DHT22;10746;50.178;8.186;2023-05-14T15:10:53;16.70;99.90
21176;DHT22;10746;50.178;8.186;2023-05-14T15:13:20;16.60;99.90
21176;DHT22;10746;50.178;8.186;2023-05-14T15:15:46;16.70;99.90
21176;DHT22;10746;50.178;8.186;2023-05-14T15:18:13;16.60;99.90
21176;DHT22;10746;50.178;8.186;2023-05-14T15:20:41;16.60;99.90
21176;DHT22;10746;50.178;8.186;2023-05-14T15:23:08;16.60;99.90
21176;DHT22;10746;50.178;8.186;2023-05-14T15:25:36;16.50;99.90
21176;DHT22;10746;50.178;8.186;2023-05-14T15:28:05;16.70;99.90
21176;DHT22;10746;50.178;8.186;2023-05-14T15:30:32;16.80;99.90
21176;DHT22;10746;50.178;8.186;2023-05-14T15:33:01;17.10;99.90
21176;DHT22;10746;50.178;8.186;2023-05-14T15:35:27;18.30;99.90
21176;DHT22;10746;50.178;8.186;2023-05-14T15:37:56;19.70;99.90
21176;DHT22;10746;50.178;8.186;2023-05-14T15:40:22;20.30;99.90
21176;DHT22;10746;50.178;8.186;2023-05-14T15:42:49;20.80;99.90